sensor_id;sensor_type;location;lat;lon;timestamp;pressure;altitude;pressure_sealevel;temperature;humidity
54600;BME280;40500;51.084;16.958;2023-03-03T00:02:06;100827.04;;;0.03;100.00
54600;BME280;40500;51.084;16.958;2023-03-03T00:04:35;100824.24;;;0.02;100.00
54600;BME280;40500;51.084;16.958;2023-03-03T00:07:04;100829.37;;;0.00;100.00
54600;BME280;40500;51.084;16.958;2023-03-03T00:09:33;100824.00;;;-0.01;100.00
54600;BME280;40500;51.084;16.958;2023-03-03T00:12:02;100827.40;;;-0.02;100.00
54600;BME280;40500;51.084;16.958;2023-03-03T00:14:45;100835.05;;;-0.05;100.00
54600;BME280;40500;51.084;16.958;2023-03-03T00:17:17;100839.85;;;-0.06;100.00
54600;BME280;40500;51.084;16.958;2023-03-03T00:19:46;100840.91;;;-0.05;100.00
54600;BME280;40500;51.084;16.958;2023-03-03T00:22:19;100840.70;;;-0.06;100.00
54600;BME280;40500;51.084;16.958;2023-03-03T00:24:52;100839.60;;;-0.08;100.00
54600;BME280;40500;51.084;16.958;2023-03-03T00:27:25;100847.92;;;-0.11;100.00
54600;BME280;40500;51.084;16.958;2023-03-03T00:29:56;100847.91;;;-0.16;100.00
54600;BME280;40500;51.084;16.958;2023-03-03T00:32:25;100849.65;;;-0.21;100.00
54600;BME280;40500;51.084;16.958;2023-03-03T00:34:55;100847.49;;;-0.23;100.00
54600;BME280;40500;51.084;16.958;2023-03-03T00:37:30;100839.68;;;-0.25;100.00
54600;BME280;40500;51.084;16.958;2023-03-03T00:42:52;100831.29;;;-0.29;100.00
54600;BME280;40500;51.084;16.958;2023-03-03T00:45:26;100828.58;;;-0.33;100.00
54600;BME280;40500;51.084;16.958;2023-03-03T00:47:56;100830.52;;;-0.36;100.00
54600;BME280;40500;51.084;16.958;2023-03-03T00:50:27;100831.42;;;-0.40;100.00
54600;BME280;40500;51.084;16.958;2023-03-03T00:52:59;100824.08;;;-0.44;100.00
54600;BME280;40500;51.084;16.958;2023-03-03T00:55:30;100824.63;;;-0.48;100.00
54600;BME280;40500;51.084;16.958;2023-03-03T00:57:59;100821.58;;;-0.51;100.00
54600;BME280;40500;51.084;16.958;2023-03-03T01:00:30;100820.52;;;-0.56;100.00
54600;BME280;40500;51.084;16.958;2023-03-03T01:03:03;100817.57;;;-0.62;100.00
54600;BME280;40500;51.084;16.958;2023-03-03T01:05:32;100821.90;;;-0.66;100.00
54600;BME280;40500;51.084;16.958;2023-03-03T01:08:01;100817.17;;;-0.68;100.00
54600;BME280;40500;51.084;16.958;2023-03-03T01:10:31;100815.05;;;-0.70;100.00
54600;BME280;40500;51.084;16.958;2023-03-03T01:13:02;100815.42;;;-0.69;100.00
54600;BME280;40500;51.084;16.958;2023-03-03T01:15:31;100817.46;;;-0.70;100.00
54600;BME280;40500;51.084;16.958;2023-03-03T01:18:00;100816.08;;;-0.70;100.00
54600;BME280;40500;51.084;16.958;2023-03-03T01:20:28;100814.77;;;-0.68;100.00
54600;BME280;40500;51.084;16.958;2023-03-03T01:22:57;100813.45;;;-0.66;100.00
54600;BME280;40500;51.084;16.958;2023-03-03T01:25:29;100813.54;;;-0.64;100.00
54600;BME280;40500;51.084;16.958;2023-03-03T01:27:58;100809.12;;;-0.63;100.00
54600;BME280;40500;51.084;16.958;2023-03-03T01:30:27;100800.02;;;-0.63;100.00
54600;BME280;40500;51.084;16.958;2023-03-03T01:32:56;100795.84;;;-0.64;100.00
54600;BME280;40500;51.084;16.958;2023-03-03T01:35:33;100796.19;;;-0.63;100.00
54600;BME280;40500;51.084;16.958;2023-03-03T01:38:03;100792.79;;;-0.63;100.00
54600;BME280;40500;51.084;16.958;2023-03-03T01:40:32;100788.67;;;-0.63;100.00
54600;BME280;40500;51.084;16.958;2023-03-03T01:43:02;100782.87;;;-0.61;100.00
54600;BME280;40500;51.084;16.958;2023-03-03T01:45:31;100783.98;;;-0.58;100.00
54600;BME280;40500;51.084;16.958;2023-03-03T01:48:09;100782.80;;;-0.58;100.00
54600;BME280;40500;51.084;16.958;2023-03-03T01:50:43;100777.15;;;-0.57;100.00
54600;BME280;40500;51.084;16.958;2023-03-03T01:53:15;100773.30;;;-0.54;100.00
54600;BME280;40500;51.084;16.958;2023-03-03T01:55:45;100778.19;;;-0.52;100.00
54600;BME280;40500;51.084;16.958;2023-03-03T01:58:16;100781.46;;;-0.52;100.00
54600;BME280;40500;51.084;16.958;2023-03-03T02:00:50;100769.55;;;-0.53;100.00
54600;BME280;40500;51.084;16.958;2023-03-03T02:03:21;100765.97;;;-0.52;100.00
54600;BME280;40500;51.084;16.958;2023-03-03T02:05:51;100765.21;;;-0.54;100.00
54600;BME280;40500;51.084;16.958;2023-03-03T02:08:24;100771.69;;;-0.56;100.00
54600;BME280;40500;51.084;16.958;2023-03-03T02:10:56;100773.82;;;-0.59;100.00
54600;BME280;40500;51.084;16.958;2023-03-03T02:13:25;100767.90;;;-0.61;100.00
54600;BME280;40500;51.084;16.958;2023-03-03T02:15:54;100771.12;;;-0.57;100.00
54600;BME280;40500;51.084;16.958;2023-03-03T02:18:25;100766.39;;;-0.55;100.00
54600;BME280;40500;51.084;16.958;2023-03-03T02:20:55;100763.54;;;-0.53;100.00
54600;BME280;40500;51.084;16.958;2023-03-03T02:23:28;100757.95;;;-0.51;100.00
54600;BME280;40500;51.084;16.958;2023-03-03T02:28:43;100748.77;;;-0.47;100.00
54600;BME280;40500;51.084;16.958;2023-03-03T02:31:13;100745.95;;;-0.44;100.00
54600;BME280;40500;51.084;16.958;2023-03-03T02:33:44;100750.08;;;-0.45;100.00
54600;BME280;40500;51.084;16.958;2023-03-03T02:36:14;100758.68;;;-0.49;100.00
54600;BME280;40500;51.084;16.958;2023-03-03T02:38:45;100765.26;;;-0.53;100.00
54600;BME280;40500;51.084;16.958;2023-03-03T02:41:17;100759.90;;;-0.54;100.00
54600;BME280;40500;51.084;16.958;2023-03-03T02:43:51;100764.52;;;-0.54;100.00
54600;BME280;40500;51.084;16.958;2023-03-03T02:46:25;100764.22;;;-0.53;100.00
54600;BME280;40500;51.084;16.958;2023-03-03T02:48:54;100760.29;;;-0.52;100.00
54600;BME280;40500;51.084;16.958;2023-03-03T02:51:23;100760.52;;;-0.51;100.00
54600;BME280;40500;51.084;16.958;2023-03-03T02:53:52;100766.08;;;-0.50;100.00
54600;BME280;40500;51.084;16.958;2023-03-03T02:56:21;100769.95;;;-0.52;100.00
54600;BME280;40500;51.084;16.958;2023-03-03T02:58:50;100776.38;;;-0.55;100.00
54600;BME280;40500;51.084;16.958;2023-03-03T03:01:20;100776.81;;;-0.57;100.00
54600;BME280;40500;51.084;16.958;2023-03-03T03:03:50;100785.45;;;-0.61;100.00
54600;BME280;40500;51.084;16.958;2023-03-03T03:06:20;100790.00;;;-0.63;100.00
54600;BME280;40500;51.084;16.958;2023-03-03T03:08:49;100789.73;;;-0.66;100.00
54600;BME280;40500;51.084;16.958;2023-03-03T03:11:18;100790.33;;;-0.69;100.00
54600;BME280;40500;51.084;16.958;2023-03-03T03:13:47;100793.29;;;-0.72;100.00
54600;BME280;40500;51.084;16.958;2023-03-03T03:16:17;100798.70;;;-0.80;100.00
54600;BME280;40500;51.084;16.958;2023-03-03T03:18:46;100797.02;;;-0.84;100.00
54600;BME280;40500;51.084;16.958;2023-03-03T03:21:15;100793.73;;;-0.85;100.00
54600;BME280;40500;51.084;16.958;2023-03-03T03:23:44;100792.71;;;-0.84;100.00
54600;BME280;40500;51.084;16.958;2023-03-03T03:26:13;100792.02;;;-0.84;100.00
54600;BME280;40500;51.084;16.958;2023-03-03T03:28:43;100786.40;;;-0.83;100.00
54600;BME280;40500;51.084;16.958;2023-03-03T03:31:12;100780.89;;;-0.83;100.00
54600;BME280;40500;51.084;16.958;2023-03-03T03:33:42;100771.30;;;-0.82;100.00
54600;BME280;40500;51.084;16.958;2023-03-03T03:36:12;100760.95;;;-0.83;100.00
54600;BME280;40500;51.084;16.958;2023-03-03T03:38:41;100761.48;;;-0.83;100.00
54600;BME280;40500;51.084;16.958;2023-03-03T03:41:11;100761.48;;;-0.82;100.00
54600;BME280;40500;51.084;16.958;2023-03-03T03:43:43;100763.15;;;-0.83;100.00
54600;BME280;40500;51.084;16.958;2023-03-03T03:46:12;100759.98;;;-0.86;100.00
54600;BME280;40500;51.084;16.958;2023-03-03T03:48:41;100760.85;;;-0.86;100.00
54600;BME280;40500;51.084;16.958;2023-03-03T03:51:13;100760.02;;;-0.85;100.00
54600;BME280;40500;51.084;16.958;2023-03-03T03:53:42;100767.27;;;-0.83;100.00
54600;BME280;40500;51.084;16.958;2023-03-03T03:56:11;100771.39;;;-0.84;100.00
54600;BME280;40500;51.084;16.958;2023-03-03T03:58:40;100775.77;;;-0.86;100.00
54600;BME280;40500;51.084;16.958;2023-03-03T04:01:11;100787.20;;;-0.89;100.00
54600;BME280;40500;51.084;16.958;2023-03-03T04:03:43;100780.17;;;-0.93;100.00
54600;BME280;40500;51.084;16.958;2023-03-03T04:06:15;100776.94;;;-0.97;100.00
54600;BME280;40500;51.084;16.958;2023-03-03T04:08:44;100781.77;;;-0.96;100.00
54600;BME280;40500;51.084;16.958;2023-03-03T04:11:14;100788.55;;;-0.99;100.00
54600;BME280;40500;51.084;16.958;2023-03-03T04:13:43;100786.94;;;-1.01;100.00
54600;BME280;40500;51.084;16.958;2023-03-03T04:16:13;100796.46;;;-0.99;100.00
54600;BME280;40500;51.084;16.958;2023-03-03T04:18:44;100799.79;;;-0.97;100.00
54600;BME280;40500;51.084;16.958;2023-03-03T04:21:14;100795.53;;;-0.96;100.00
54600;BME280;40500;51.084;16.958;2023-03-03T04:23:44;100791.84;;;-0.94;100.00
54600;BME280;40500;51.084;16.958;2023-03-03T04:26:13;100800.88;;;-0.91;100.00
54600;BME280;40500;51.084;16.958;2023-03-03T04:28:43;100805.59;;;-0.94;100.00
54600;BME280;40500;51.084;16.958;2023-03-03T04:31:12;100810.00;;;-0.95;100.00
54600;BME280;40500;51.084;16.958;2023-03-03T04:33:41;100803.29;;;-0.95;100.00
54600;BME280;40500;51.084;16.958;2023-03-03T04:36:11;100809.48;;;-0.95;100.00
54600;BME280;40500;51.084;16.958;2023-03-03T04:38:40;100800.50;;;-0.96;100.00
54600;BME280;40500;51.084;16.958;2023-03-03T04:41:09;100796.73;;;-0.96;100.00
54600;BME280;40500;51.084;16.958;2023-03-03T04:43:39;100802.43;;;-0.95;100.00
54600;BME280;40500;51.084;16.958;2023-03-03T04:46:09;100807.21;;;-0.96;100.00
54600;BME280;40500;51.084;16.958;2023-03-03T04:48:38;100812.30;;;-0.98;100.00
54600;BME280;40500;51.084;16.958;2023-03-03T04:51:07;100815.25;;;-1.02;100.00
54600;BME280;40500;51.084;16.958;2023-03-03T04:53:36;100812.92;;;-1.04;100.00
54600;BME280;40500;51.084;16.958;2023-03-03T04:56:06;100815.46;;;-1.05;100.00
54600;BME280;40500;51.084;16.958;2023-03-03T04:58:36;100821.00;;;-1.09;100.00
54600;BME280;40500;51.084;16.958;2023-03-03T05:01:05;100823.59;;;-1.08;100.00
54600;BME280;40500;51.084;16.958;2023-03-03T05:03:34;100815.86;;;-1.08;100.00
54600;BME280;40500;51.084;16.958;2023-03-03T05:06:03;100811.79;;;-1.07;100.00
54600;BME280;40500;51.084;16.958;2023-03-03T05:08:32;100806.98;;;-1.07;100.00
54600;BME280;40500;51.084;16.958;2023-03-03T05:11:01;100813.04;;;-1.06;100.00
54600;BME280;40500;51.084;16.958;2023-03-03T05:13:31;100815.02;;;-1.08;100.00
54600;BME280;40500;51.084;16.958;2023-03-03T05:15:59;100804.77;;;-1.10;100.00
54600;BME280;40500;51.084;16.958;2023-03-03T05:18:28;100809.69;;;-1.12;100.00
54600;BME280;40500;51.084;16.958;2023-03-03T05:20:57;100799.74;;;-1.12;100.00
54600;BME280;40500;51.084;16.958;2023-03-03T05:23:26;100801.16;;;-1.11;100.00
54600;BME280;40500;51.084;16.958;2023-03-03T05:25:55;100796.74;;;-1.09;100.00
54600;BME280;40500;51.084;16.958;2023-03-03T05:28:24;100791.66;;;-1.08;100.00
54600;BME280;40500;51.084;16.958;2023-03-03T05:30:53;100799.83;;;-1.10;100.00
54600;BME280;40500;51.084;16.958;2023-03-03T05:33:22;100807.78;;;-1.13;100.00
54600;BME280;40500;51.084;16.958;2023-03-03T05:35:53;100810.60;;;-1.16;100.00
54600;BME280;40500;51.084;16.958;2023-03-03T05:38:23;100802.81;;;-1.17;100.00
54600;BME280;40500;51.084;16.958;2023-03-03T05:40:52;100812.19;;;-1.19;100.00
54600;BME280;40500;51.084;16.958;2023-03-03T05:43:21;100804.79;;;-1.20;100.00
54600;BME280;40500;51.084;16.958;2023-03-03T05:45:54;100803.05;;;-1.21;100.00
54600;BME280;40500;51.084;16.958;2023-03-03T05:48:24;100802.22;;;-1.20;100.00
54600;BME280;40500;51.084;16.958;2023-03-03T05:50:52;100804.15;;;-1.18;100.00
54600;BME280;40500;51.084;16.958;2023-03-03T05:53:21;100799.80;;;-1.15;100.00
54600;BME280;40500;51.084;16.958;2023-03-03T05:55:50;100813.04;;;-1.15;100.00
54600;BME280;40500;51.084;16.958;2023-03-03T05:58:19;100804.65;;;-1.14;100.00
54600;BME280;40500;51.084;16.958;2023-03-03T06:00:48;100810.73;;;-1.12;100.00
54600;BME280;40500;51.084;16.958;2023-03-03T06:03:17;100818.52;;;-1.11;100.00
54600;BME280;40500;51.084;16.958;2023-03-03T06:05:46;100816.61;;;-1.11;100.00
54600;BME280;40500;51.084;16.958;2023-03-03T06:08:15;100819.04;;;-1.15;100.00
54600;BME280;40500;51.084;16.958;2023-03-03T06:10:44;100821.38;;;-1.17;100.00
54600;BME280;40500;51.084;16.958;2023-03-03T06:13:14;100822.60;;;-1.16;100.00
54600;BME280;40500;51.084;16.958;2023-03-03T06:15:43;100825.52;;;-1.16;100.00
54600;BME280;40500;51.084;16.958;2023-03-03T06:18:12;100826.77;;;-1.16;100.00
54600;BME280;40500;51.084;16.958;2023-03-03T06:20:41;100828.63;;;-1.16;100.00
54600;BME280;40500;51.084;16.958;2023-03-03T06:23:10;100817.65;;;-1.16;100.00
54600;BME280;40500;51.084;16.958;2023-03-03T06:25:39;100817.38;;;-1.14;100.00
54600;BME280;40500;51.084;16.958;2023-03-03T06:28:08;100827.03;;;-1.13;100.00
54600;BME280;40500;51.084;16.958;2023-03-03T06:30:36;100837.60;;;-1.10;100.00
54600;BME280;40500;51.084;16.958;2023-03-03T06:33:05;100846.41;;;-1.10;100.00
54600;BME280;40500;51.084;16.958;2023-03-03T06:35:34;100848.70;;;-1.08;100.00
54600;BME280;40500;51.084;16.958;2023-03-03T06:38:04;100852.81;;;-1.09;100.00
54600;BME280;40500;51.084;16.958;2023-03-03T06:40:32;100853.77;;;-1.10;100.00
54600;BME280;40500;51.084;16.958;2023-03-03T06:43:01;100847.64;;;-1.13;100.00
54600;BME280;40500;51.084;16.958;2023-03-03T06:45:30;100846.63;;;-1.13;100.00
54600;BME280;40500;51.084;16.958;2023-03-03T06:47:59;100834.48;;;-1.11;100.00
54600;BME280;40500;51.084;16.958;2023-03-03T06:50:28;100838.19;;;-1.09;100.00
54600;BME280;40500;51.084;16.958;2023-03-03T06:52:59;100836.55;;;-1.07;100.00
54600;BME280;40500;51.084;16.958;2023-03-03T06:55:29;100840.81;;;-1.08;100.00
54600;BME280;40500;51.084;16.958;2023-03-03T06:57:59;100848.35;;;-1.08;100.00
54600;BME280;40500;51.084;16.958;2023-03-03T07:00:29;100842.08;;;-1.11;100.00
54600;BME280;40500;51.084;16.958;2023-03-03T07:02:59;100847.90;;;-1.11;100.00
54600;BME280;40500;51.084;16.958;2023-03-03T07:05:29;100851.22;;;-1.09;100.00
54600;BME280;40500;51.084;16.958;2023-03-03T07:07:59;100855.16;;;-1.10;100.00
54600;BME280;40500;51.084;16.958;2023-03-03T07:10:29;100860.98;;;-1.11;100.00
54600;BME280;40500;51.084;16.958;2023-03-03T07:13:01;100861.97;;;-1.12;100.00
54600;BME280;40500;51.084;16.958;2023-03-03T07:15:34;100870.85;;;-1.13;100.00
54600;BME280;40500;51.084;16.958;2023-03-03T07:18:03;100881.39;;;-1.16;100.00
54600;BME280;40500;51.084;16.958;2023-03-03T07:20:39;100882.34;;;-1.19;100.00
54600;BME280;40500;51.084;16.958;2023-03-03T07:23:12;100883.64;;;-1.20;100.00
54600;BME280;40500;51.084;16.958;2023-03-03T07:25:46;100884.89;;;-1.19;100.00
54600;BME280;40500;51.084;16.958;2023-03-03T07:28:19;100892.72;;;-1.21;100.00
54600;BME280;40500;51.084;16.958;2023-03-03T07:30:50;100897.60;;;-1.24;100.00
54600;BME280;40500;51.084;16.958;2023-03-03T07:33:22;100892.94;;;-1.24;100.00
54600;BME280;40500;51.084;16.958;2023-03-03T07:35:52;100895.26;;;-1.22;100.00
54600;BME280;40500;51.084;16.958;2023-03-03T07:38:28;100889.55;;;-1.19;100.00
54600;BME280;40500;51.084;16.958;2023-03-03T07:40:59;100877.82;;;-1.15;100.00
54600;BME280;40500;51.084;16.958;2023-03-03T07:43:32;100878.42;;;-1.08;100.00
54600;BME280;40500;51.084;16.958;2023-03-03T07:46:12;100874.71;;;-1.02;100.00
54600;BME280;40500;51.084;16.958;2023-03-03T07:48:42;100869.88;;;-0.98;100.00
54600;BME280;40500;51.084;16.958;2023-03-03T07:51:22;100872.50;;;-0.97;100.00
54600;BME280;40500;51.084;16.958;2023-03-03T07:53:52;100871.52;;;-0.96;100.00
54600;BME280;40500;51.084;16.958;2023-03-03T07:56:27;100879.67;;;-0.94;100.00
54600;BME280;40500;51.084;16.958;2023-03-03T07:59:06;100882.59;;;-0.90;100.00
54600;BME280;40500;51.084;16.958;2023-03-03T08:01:43;100884.67;;;-0.85;100.00
54600;BME280;40500;51.084;16.958;2023-03-03T08:04:16;100881.69;;;-0.82;100.00
54600;BME280;40500;51.084;16.958;2023-03-03T08:06:48;100878.73;;;-0.78;100.00
54600;BME280;40500;51.084;16.958;2023-03-03T08:12:15;100869.20;;;-0.70;100.00
54600;BME280;40500;51.084;16.958;2023-03-03T08:14:46;100870.44;;;-0.69;100.00
54600;BME280;40500;51.084;16.958;2023-03-03T08:17:16;100876.13;;;-0.69;100.00
54600;BME280;40500;51.084;16.958;2023-03-03T08:19:47;100873.39;;;-0.69;100.00
54600;BME280;40500;51.084;16.958;2023-03-03T08:22:18;100866.65;;;-0.70;100.00
54600;BME280;40500;51.084;16.958;2023-03-03T08:24:47;100870.52;;;-0.72;100.00
54600;BME280;40500;51.084;16.958;2023-03-03T08:27:16;100870.55;;;-0.76;100.00
54600;BME280;40500;51.084;16.958;2023-03-03T08:29:46;100873.95;;;-0.76;100.00
54600;BME280;40500;51.084;16.958;2023-03-03T08:32:16;100870.39;;;-0.76;100.00
54600;BME280;40500;51.084;16.958;2023-03-03T08:34:45;100867.09;;;-0.76;100.00
54600;BME280;40500;51.084;16.958;2023-03-03T08:37:16;100868.79;;;-0.77;100.00
54600;BME280;40500;51.084;16.958;2023-03-03T08:39:48;100865.33;;;-0.73;100.00
54600;BME280;40500;51.084;16.958;2023-03-03T08:42:17;100864.34;;;-0.67;100.00
54600;BME280;40500;51.084;16.958;2023-03-03T08:44:46;100861.20;;;-0.64;100.00
54600;BME280;40500;51.084;16.958;2023-03-03T08:47:15;100869.69;;;-0.62;100.00
54600;BME280;40500;51.084;16.958;2023-03-03T08:49:44;100875.11;;;-0.60;100.00
54600;BME280;40500;51.084;16.958;2023-03-03T08:52:14;100877.56;;;-0.58;100.00
54600;BME280;40500;51.084;16.958;2023-03-03T08:54:43;100884.20;;;-0.55;100.00
54600;BME280;40500;51.084;16.958;2023-03-03T08:57:11;100892.63;;;-0.51;100.00
54600;BME280;40500;51.084;16.958;2023-03-03T08:59:42;100893.96;;;-0.47;100.00
54600;BME280;40500;51.084;16.958;2023-03-03T09:02:19;100899.28;;;-0.43;100.00
54600;BME280;40500;51.084;16.958;2023-03-03T09:04:51;100900.70;;;-0.42;100.00
54600;BME280;40500;51.084;16.958;2023-03-03T09:07:20;100900.80;;;-0.44;100.00
54600;BME280;40500;51.084;16.958;2023-03-03T09:09:49;100903.17;;;-0.45;100.00
54600;BME280;40500;51.084;16.958;2023-03-03T09:12:20;100903.80;;;-0.42;100.00
54600;BME280;40500;51.084;16.958;2023-03-03T09:14:51;100901.88;;;-0.37;100.00
54600;BME280;40500;51.084;16.958;2023-03-03T09:17:24;100903.30;;;-0.32;100.00
54600;BME280;40500;51.084;16.958;2023-03-03T09:19:55;100903.69;;;-0.31;100.00
54600;BME280;40500;51.084;16.958;2023-03-03T09:22:26;100907.47;;;-0.35;100.00
54600;BME280;40500;51.084;16.958;2023-03-03T09:24:56;100908.31;;;-0.36;100.00
54600;BME280;40500;51.084;16.958;2023-03-03T09:27:28;100916.97;;;-0.34;100.00
54600;BME280;40500;51.084;16.958;2023-03-03T09:29:57;100918.25;;;-0.36;100.00
54600;BME280;40500;51.084;16.958;2023-03-03T09:32:32;100919.30;;;-0.37;100.00
54600;BME280;40500;51.084;16.958;2023-03-03T09:37:46;100916.97;;;-0.39;100.00
54600;BME280;40500;51.084;16.958;2023-03-03T09:43:02;100924.69;;;-0.40;100.00
54600;BME280;40500;51.084;16.958;2023-03-03T09:45:35;100924.70;;;-0.34;100.00
54600;BME280;40500;51.084;16.958;2023-03-03T09:48:18;100922.73;;;-0.32;100.00
54600;BME280;40500;51.084;16.958;2023-03-03T09:50:54;100921.42;;;-0.30;100.00
54600;BME280;40500;51.084;16.958;2023-03-03T09:53:30;100923.99;;;-0.30;100.00
54600;BME280;40500;51.084;16.958;2023-03-03T09:56:04;100922.16;;;-0.29;100.00
54600;BME280;40500;51.084;16.958;2023-03-03T09:58:41;100924.24;;;-0.24;100.00
54600;BME280;40500;51.084;16.958;2023-03-03T10:01:22;100927.67;;;-0.19;100.00
54600;BME280;40500;51.084;16.958;2023-03-03T10:04:00;100931.51;;;-0.17;100.00
54600;BME280;40500;51.084;16.958;2023-03-03T10:06:33;100930.37;;;-0.16;100.00
54600;BME280;40500;51.084;16.958;2023-03-03T10:09:15;100932.31;;;-0.10;100.00
54600;BME280;40500;51.084;16.958;2023-03-03T10:11:52;100927.61;;;-0.07;100.00
54600;BME280;40500;51.084;16.958;2023-03-03T10:14:31;100927.19;;;-0.04;100.00
54600;BME280;40500;51.084;16.958;2023-03-03T10:17:12;100926.63;;;-0.01;100.00
54600;BME280;40500;51.084;16.958;2023-03-03T10:19:47;100921.91;;;-0.02;100.00
54600;BME280;40500;51.084;16.958;2023-03-03T10:22:21;100921.20;;;0.02;100.00
54600;BME280;40500;51.084;16.958;2023-03-03T10:24:55;100918.86;;;0.04;100.00
54600;BME280;40500;51.084;16.958;2023-03-03T10:27:34;100926.26;;;0.04;100.00
54600;BME280;40500;51.084;16.958;2023-03-03T10:30:10;100920.64;;;0.06;100.00
54600;BME280;40500;51.084;16.958;2023-03-03T10:32:44;100921.77;;;0.08;100.00
54600;BME280;40500;51.084;16.958;2023-03-03T10:38:14;100927.73;;;0.12;100.00
54600;BME280;40500;51.084;16.958;2023-03-03T10:40:49;100922.25;;;0.17;100.00
54600;BME280;40500;51.084;16.958;2023-03-03T10:43:31;100926.26;;;0.24;100.00
54600;BME280;40500;51.084;16.958;2023-03-03T10:49:03;100919.80;;;0.21;100.00
54600;BME280;40500;51.084;16.958;2023-03-03T10:51:38;100917.29;;;0.23;100.00
54600;BME280;40500;51.084;16.958;2023-03-03T10:54:16;100914.59;;;0.25;100.00
54600;BME280;40500;51.084;16.958;2023-03-03T10:56:51;100910.82;;;0.26;100.00
54600;BME280;40500;51.084;16.958;2023-03-03T10:59:28;100914.95;;;0.26;100.00
54600;BME280;40500;51.084;16.958;2023-03-03T11:02:04;100913.47;;;0.28;100.00
54600;BME280;40500;51.084;16.958;2023-03-03T11:04:41;100908.41;;;0.31;100.00
54600;BME280;40500;51.084;16.958;2023-03-03T11:07:12;100907.98;;;0.33;100.00
54600;BME280;40500;51.084;16.958;2023-03-03T11:09:55;100900.91;;;0.33;100.00
54600;BME280;40500;51.084;16.958;2023-03-03T11:12:31;100897.88;;;0.35;100.00
54600;BME280;40500;51.084;16.958;2023-03-03T11:15:12;100893.09;;;0.36;100.00
54600;BME280;40500;51.084;16.958;2023-03-03T11:18:12;100888.31;;;0.37;100.00
54600;BME280;40500;51.084;16.958;2023-03-03T11:20:45;100887.81;;;0.38;100.00
54600;BME280;40500;51.084;16.958;2023-03-03T11:23:23;100887.30;;;0.38;100.00
54600;BME280;40500;51.084;16.958;2023-03-03T11:25:59;100888.51;;;0.38;100.00
54600;BME280;40500;51.084;16.958;2023-03-03T11:28:39;100889.52;;;0.44;100.00
54600;BME280;40500;51.084;16.958;2023-03-03T11:31:14;100891.35;;;0.52;100.00
54600;BME280;40500;51.084;16.958;2023-03-03T11:33:49;100889.52;;;0.59;100.00
54600;BME280;40500;51.084;16.958;2023-03-03T11:36:22;100886.66;;;0.62;100.00
54600;BME280;40500;51.084;16.958;2023-03-03T11:38:55;100876.85;;;0.67;100.00
54600;BME280;40500;51.084;16.958;2023-03-03T11:41:32;100873.02;;;0.71;100.00
54600;BME280;40500;51.084;16.958;2023-03-03T11:44:08;100873.68;;;0.76;100.00
54600;BME280;40500;51.084;16.958;2023-03-03T11:46:41;100873.57;;;0.84;100.00
54600;BME280;40500;51.084;16.958;2023-03-03T11:49:14;100870.62;;;0.83;100.00
54600;BME280;40500;51.084;16.958;2023-03-03T11:51:48;100865.78;;;0.77;100.00
54600;BME280;40500;51.084;16.958;2023-03-03T11:54:21;100869.08;;;0.83;100.00
54600;BME280;40500;51.084;16.958;2023-03-03T11:56:52;100865.55;;;0.87;100.00
54600;BME280;40500;51.084;16.958;2023-03-03T11:59:32;100865.61;;;0.88;100.00
54600;BME280;40500;51.084;16.958;2023-03-03T12:02:05;100864.80;;;0.90;100.00
54600;BME280;40500;51.084;16.958;2023-03-03T12:04:42;100861.86;;;0.95;100.00
54600;BME280;40500;51.084;16.958;2023-03-03T12:07:16;100860.80;;;0.95;100.00
54600;BME280;40500;51.084;16.958;2023-03-03T12:09:54;100861.35;;;0.96;100.00
54600;BME280;40500;51.084;16.958;2023-03-03T12:12:28;100863.92;;;0.94;100.00
54600;BME280;40500;51.084;16.958;2023-03-03T12:15:03;100860.42;;;0.93;100.00
54600;BME280;40500;51.084;16.958;2023-03-03T12:17:47;100863.27;;;0.96;100.00
54600;BME280;40500;51.084;16.958;2023-03-03T12:20:23;100861.36;;;0.96;100.00
54600;BME280;40500;51.084;16.958;2023-03-03T12:22:58;100856.43;;;0.93;100.00
54600;BME280;40500;51.084;16.958;2023-03-03T12:25:35;100857.39;;;0.90;100.00
54600;BME280;40500;51.084;16.958;2023-03-03T12:28:08;100850.28;;;0.88;100.00
54600;BME280;40500;51.084;16.958;2023-03-03T12:30:42;100847.48;;;0.87;100.00
54600;BME280;40500;51.084;16.958;2023-03-03T12:33:23;100847.65;;;0.87;100.00
54600;BME280;40500;51.084;16.958;2023-03-03T12:35:59;100847.33;;;0.88;100.00
54600;BME280;40500;51.084;16.958;2023-03-03T12:38:36;100851.05;;;0.91;100.00
54600;BME280;40500;51.084;16.958;2023-03-03T12:41:14;100852.10;;;0.92;100.00
54600;BME280;40500;51.084;16.958;2023-03-03T12:43:55;100850.52;;;0.96;100.00
54600;BME280;40500;51.084;16.958;2023-03-03T12:46:31;100848.89;;;0.99;100.00
54600;BME280;40500;51.084;16.958;2023-03-03T12:49:03;100844.56;;;1.05;100.00
54600;BME280;40500;51.084;16.958;2023-03-03T12:54:23;100846.07;;;1.09;100.00
54600;BME280;40500;51.084;16.958;2023-03-03T12:56:56;100845.05;;;1.09;100.00
54600;BME280;40500;51.084;16.958;2023-03-03T12:59:30;100847.22;;;1.13;100.00
54600;BME280;40500;51.084;16.958;2023-03-03T13:02:18;100848.60;;;1.19;100.00
54600;BME280;40500;51.084;16.958;2023-03-03T13:04:50;100844.83;;;1.20;100.00
54600;BME280;40500;51.084;16.958;2023-03-03T13:07:26;100841.45;;;1.16;100.00
54600;BME280;40500;51.084;16.958;2023-03-03T13:10:04;100840.73;;;1.15;100.00
54600;BME280;40500;51.084;16.958;2023-03-03T13:12:37;100841.45;;;1.16;100.00
54600;BME280;40500;51.084;16.958;2023-03-03T13:15:11;100838.68;;;1.22;100.00
54600;BME280;40500;51.084;16.958;2023-03-03T13:17:45;100839.35;;;1.27;100.00
54600;BME280;40500;51.084;16.958;2023-03-03T13:20:20;100842.55;;;1.31;100.00